createdAt,value
2018-02-19T01:02:34.668Z,75.52
2018-02-19T01:17:36.123Z,75.99
2018-02-19T02:17:34.373Z,76.62
2018-02-19T02:32:34.302Z,76.46
2018-02-19T02:47:36.176Z,76.70
2018-02-19T03:02:35.221Z,76.64
2018-02-19T03:17:34.556Z,76.87
2018-02-19T03:32:36.039Z,76.87
2018-02-19T03:47:36.484Z,77.23
2018-02-19T04:02:34.413Z,77.23
2018-02-19T04:17:36.869Z,77.18
2018-02-19T04:32:35.778Z,76.94
2018-02-19T04:47:34.807Z,68.72
2018-02-19T05:02:34.637Z,69.85
2018-02-19T05:32:34.934Z,72.23
2018-02-19T06:02:34.815Z,73.26
2018-02-19T06:47:34.042Z,74.55
2018-02-19T07:17:34.509Z,75.37
2018-02-19T07:47:34.278Z,79.14
2018-02-19T08:02:36.215Z,80.85
2018-02-19T08:17:34.684Z,82.25
2018-02-19T08:32:34.711Z,81.91
2018-02-19T08:47:34.549Z,81.78
2018-02-19T09:02:34.537Z,81.67
2018-02-19T09:17:34.945Z,81.48
2018-02-19T09:32:34.890Z,82.05
2018-02-19T09:47:34.877Z,84.21
2018-02-19T10:02:34.822Z,84.15
2018-02-19T10:17:35.189Z,83.87
2018-02-19T10:32:37.133Z,85.72
2018-02-19T10:47:35.041Z,85.73
2018-02-19T11:02:37.001Z,85.83
2018-02-19T11:17:34.940Z,86.27
2018-02-19T11:32:34.880Z,86.80
2018-02-19T11:47:34.750Z,87.02
2018-02-19T12:02:34.704Z,86.18
2018-02-19T12:17:34.713Z,86.74
2018-02-19T12:32:36.677Z,86.27
2018-02-19T12:47:34.493Z,85.92
2018-02-19T13:02:35.493Z,86.53
2018-02-19T13:17:34.964Z,86.19
2018-02-19T13:32:34.853Z,86.72
2018-02-19T13:47:34.813Z,87.07
2018-02-19T14:02:34.657Z,87.14
2018-02-19T14:17:36.076Z,87.20
2018-02-19T14:32:37.145Z,87.85
2018-02-19T14:47:34.950Z,87.84
2018-02-19T15:02:36.929Z,88.45
2018-02-19T15:17:35.365Z,88.37
2018-02-19T15:32:35.286Z,88.74
2018-02-19T15:47:35.385Z,88.46
2018-02-19T16:02:35.152Z,88.88
2018-02-19T16:17:36.517Z,88.60
2018-02-19T16:32:34.457Z,88.59
2018-02-19T16:47:37.457Z,86.76
2018-02-19T17:02:40.794Z,86.55
2018-02-19T17:17:34.772Z,84.98
2018-02-19T17:32:34.671Z,84.79
2018-02-19T17:47:36.615Z,84.18
2018-02-19T18:02:34.544Z,84.00
2018-02-19T18:17:34.940Z,83.78
2018-02-19T18:32:34.903Z,84.11
2018-02-19T18:47:34.883Z,84.79
2018-02-19T19:02:34.836Z,84.35
2018-02-19T19:17:35.232Z,83.84
2018-02-19T19:32:35.767Z,83.24
2018-02-19T20:02:35.069Z,83.69
2018-02-19T20:17:35.396Z,83.92
2018-02-19T20:32:35.484Z,84.51
2018-02-19T20:47:38.295Z,83.89
2018-02-19T21:02:34.595Z,82.59
2018-02-19T21:32:36.105Z,81.76
2018-02-19T21:47:38.213Z,81.37
2018-02-19T22:02:36.420Z,81.64
2018-02-19T22:17:34.366Z,81.66
2018-02-19T22:32:35.797Z,81.67
2018-02-19T22:47:37.746Z,82.21
2018-02-19T23:02:34.599Z,82.44
2018-02-19T23:17:34.246Z,82.81
2018-02-19T23:32:34.030Z,82.23
2018-02-19T23:47:34.403Z,81.45
